Terminal Aerodrome Forecast
Issued by NWS

Home | Current Version | Previous Version | Text Only | Print | Product List | Glossary On
Versions: 1 2 3 4 5 6 7 8 9 10 11 12 13 14 15 16 17 18 19
712
FTUS45 KTFX 241601 AAB
TAFHVR
TAF AMD
KHVR 241601Z 2416/2512 VRB03KT P6SM BKN010 OVC050
      TEMPO 2416/2417 3SM BR OVC004
     FM241700 34008KT P6SM BKN040 BKN080
     FM250200 32005KT P6SM BKN030
     FM250600 29005KT P6SM OVC015=

USA.gov is the U.S. government's official web portal to all federal, state and local government web resources and services.